Meteo Giornale » Osservazioni meteo Egitto » Cairo

ore: 12:30 - Osservazioni Meteo Cairo
Lat. 30° 8' N Lon. 31° 24' E Alt. 64 metri s.l.m.

sereno Africa/Cairo

35 °C

Sereno

Temp. 24 Ore

26 °C

35 °C

Ovest/Nord-Ovest

7.4 Km/h

Dew point 11 °C

Umidità 23 %

Visibilità  10 Km

Il sole sorge alle ore 05:16

Il sole tramonta alle ore 18:43

Data e Ora Cielo e Fenomeni T °C DP °C Um. % Pres. hPa Vis. km Vento km/h
Oggi h: 12:30 sereno Sereno 35 11 23 1007 10 O/NO 7.4
Oggi h: 12:00 sereno Sereno 33 13 29 1007 10 NO 7.4
Oggi h: 11:30 sereno Sereno 33 13 29 1008 10 O/NO 13
Oggi h: 11:00 sereno Sereno 32 14 33 1008 10 N 5.5
Oggi h: 10:30 sereno Sereno 32 15 35 1008 10 N 5.5
Oggi h: 10:00 sereno Sereno 31 16 40 1008 10 N 3.7
Oggi h: 09:30 sereno Sereno 30 14 37 1008 10 N 3.7
Oggi h: 09:00 sereno Sereno 30 18 48 1008 10 N 5.5
Oggi h: 08:00 sereno Sereno 28 19 58 1008 10 N 5.5
Oggi h: 07:30 sereno Sereno 28 21 65 1008 10 N 3.7
Oggi h: 07:00 sereno Sereno 27 21 69 1008 10 N 3.7
Oggi h: 06:30 sereno Sereno 26 21 73 1007 10 N 3.7
Oggi h: 06:00 sereno Sereno 26 21 73 1007 10 N 5.5
Oggi h: 05:30 sereno Sereno 26 21 73 1007 10 N 5.5
Oggi h: 05:00 sereno Sereno 26 21 73 1007 10 E 7.4
Oggi h: 04:30 sereno Sereno 26 21 73 1007 10 N 5.5
Oggi h: 04:00 sereno Sereno 26 21 73 1007 10 N 5.5
Oggi h: 03:30 sereno Sereno 26 21 73 1007 10 N 5.5
Oggi h: 03:00 sereno Sereno 26 21 73 1007 10 N 5.5
Oggi h: 02:30 sereno Sereno 27 22 74 1006 10 N 5.5
Oggi h: 02:00 sereno Sereno 27 22 74 1006 10 N 5.5
Oggi h: 01:00 sereno Sereno 27 22 74 1006 10 N 5.5
Oggi h: 00:30 sereno Sereno 28 22 69 1006 10 E/NE 7.4
Oggi h: 00:00 sereno Sereno 28 22 69 1007 10 N 7.4
Ieri h: 23:30 sereno Sereno 28 21 65 1007 10 N 9.3
Ieri h: 23:00 sereno Sereno 28 22 69 1007 10 N 11.1
Ieri h: 22:00 sereno Sereno 29 21 62 1007 10 N 16.7
Ieri h: 21:00 sereno Sereno 30 20 55 1006 10 N/NO 14.8
Ieri h: 20:30 sereno Sereno 31 20 52 1006 10 N/NO 14.8
Ieri h: 20:00 sereno Sereno 31 18 45 1005 10 N/NO 14.8
Ieri h: 19:30 sereno Sereno 31 18 45 1005 10 N/NO 14.8
Ieri h: 19:00 sereno Sereno 32 18 43 1005 10 N/NO 13
Ieri h: 18:30 sereno Sereno 32 18 43 1004 10 NO 14.8
Ieri h: 18:00 sereno Sereno 33 18 41 1004 10 NO 14.8
Ieri h: 17:30 sereno Sereno 33 18 41 1004 10 N/NO 14.8
Ieri h: 17:00 sereno Sereno 33 18 41 1004 10 N/NO 14.8
Ieri h: 16:30 sereno Sereno 33 17 38 1004 10 NO 14.8
Ieri h: 16:00 sereno Sereno 33 17 38 1004 10 N 5.5
Ieri h: 15:30 sereno Sereno 33 18 41 1004 10 O/NO 7.4
Ieri h: 15:00 sereno Sereno 33 18 41 1005 10 O 11.1
Ieri h: 14:30 sereno Sereno 33 17 38 1005 10 NO 9.3
Ieri h: 14:00 sereno Sereno 33 16 36 1005 10 N 11.1
Ieri h: 13:30 sereno Sereno 32 16 38 1005 10 O/SO 11.1
Ieri h: 13:00 sereno Sereno 32 17 40 1005 10 O/NO 9.3